sensor_id;sensor_type;location;lat;lon;timestamp;pressure;altitude;pressure_sealevel;temperature;humidity
57000;BME280;42891;50.006;21.964;2023-05-01T00:02:41;50824.34;;;-146.02;52.81
57000;BME280;42891;50.006;21.964;2023-05-01T00:06:42;50854.41;;;-146.02;52.94
57000;BME280;42891;50.006;21.964;2023-05-01T00:10:42;50886.47;;;-146.02;52.95
57000;BME280;42891;50.006;21.964;2023-05-01T00:14:42;50854.41;;;-146.02;52.98
57000;BME280;42891;50.006;21.964;2023-05-01T00:18:43;50836.38;;;-146.02;53.03
57000;BME280;42891;50.006;21.964;2023-05-01T00:22:43;50850.41;;;-146.02;53.34
57000;BME280;42891;50.006;21.964;2023-05-01T00:26:44;50840.38;;;-146.02;52.79
57000;BME280;42891;50.006;21.964;2023-05-01T00:30:44;50854.41;;;-146.02;53.31
57000;BME280;42891;50.006;21.964;2023-05-01T00:34:44;50878.47;;;-146.02;53.43
57000;BME280;42891;50.006;21.964;2023-05-01T00:38:46;50852.41;;;-146.02;53.80
57000;BME280;42891;50.006;21.964;2023-05-01T00:42:47;50854.41;;;-146.02;53.27
57000;BME280;42891;50.006;21.964;2023-05-01T00:46:47;50848.41;;;-146.02;53.79
57000;BME280;42891;50.006;21.964;2023-05-01T00:50:48;50870.44;;;-146.02;53.48
57000;BME280;42891;50.006;21.964;2023-05-01T00:54:49;50822.34;;;-146.02;53.85
57000;BME280;42891;50.006;21.964;2023-05-01T00:58:51;50880.47;;;-146.02;54.33
57000;BME280;42891;50.006;21.964;2023-05-01T01:02:54;50826.38;;;-146.02;54.47
57000;BME280;42891;50.006;21.964;2023-05-01T01:11:29;50844.41;;;-146.02;54.49
57000;BME280;42891;50.006;21.964;2023-05-01T01:15:39;50860.44;;;-146.02;54.43
57000;BME280;42891;50.006;21.964;2023-05-01T01:33:49;50880.47;;;-146.02;55.13
57000;BME280;42891;50.006;21.964;2023-05-01T01:38:00;50886.47;;;-146.02;55.07
57000;BME280;42891;50.006;21.964;2023-05-01T01:42:07;50872.44;;;-146.02;55.43
57000;BME280;42891;50.006;21.964;2023-05-01T01:46:09;50862.44;;;-146.02;55.62
57000;BME280;42891;50.006;21.964;2023-05-01T01:50:11;50888.47;;;-146.02;55.42
57000;BME280;42891;50.006;21.964;2023-05-01T01:54:17;50868.44;;;-146.02;55.07
57000;BME280;42891;50.006;21.964;2023-05-01T01:58:20;50908.50;;;-146.02;55.81
57000;BME280;42891;50.006;21.964;2023-05-01T02:02:26;50834.38;;;-146.02;55.50
57000;BME280;42891;50.006;21.964;2023-05-01T02:06:28;50880.47;;;-146.02;55.51
57000;BME280;42891;50.006;21.964;2023-05-01T02:10:32;50882.47;;;-146.02;55.09
57000;BME280;42891;50.006;21.964;2023-05-01T02:14:33;50874.44;;;-146.02;55.11
57000;BME280;42891;50.006;21.964;2023-05-01T02:18:35;50896.50;;;-146.02;54.91
57000;BME280;42891;50.006;21.964;2023-05-01T02:22:38;50838.38;;;-146.02;55.19
57000;BME280;42891;50.006;21.964;2023-05-01T02:26:41;50808.34;;;-146.02;55.12
57000;BME280;42891;50.006;21.964;2023-05-01T02:30:42;50878.47;;;-146.02;55.44
57000;BME280;42891;50.006;21.964;2023-05-01T02:34:43;50876.44;;;-146.02;55.27
57000;BME280;42891;50.006;21.964;2023-05-01T02:38:43;50880.47;;;-146.02;55.41
57000;BME280;42891;50.006;21.964;2023-05-01T02:42:48;50882.47;;;-146.02;55.29
57000;BME280;42891;50.006;21.964;2023-05-01T02:46:49;50870.44;;;-146.02;55.39
57000;BME280;42891;50.006;21.964;2023-05-01T02:50:52;50840.38;;;-146.02;55.29
57000;BME280;42891;50.006;21.964;2023-05-01T02:54:54;50848.41;;;-146.02;55.68
57000;BME280;42891;50.006;21.964;2023-05-01T02:58:55;50862.44;;;-146.02;56.03
57000;BME280;42891;50.006;21.964;2023-05-01T03:02:56;50860.44;;;-146.02;55.76
57000;BME280;42891;50.006;21.964;2023-05-01T03:06:57;50886.47;;;-146.02;55.99
57000;BME280;42891;50.006;21.964;2023-05-01T03:10:57;50862.44;;;-146.02;56.04
57000;BME280;42891;50.006;21.964;2023-05-01T03:14:58;50872.44;;;-146.02;56.54
57000;BME280;42891;50.006;21.964;2023-05-01T03:18:58;50830.38;;;-146.02;56.46
57000;BME280;42891;50.006;21.964;2023-05-01T03:22:59;50890.47;;;-146.02;56.42
57000;BME280;42891;50.006;21.964;2023-05-01T03:26:59;50876.44;;;-146.02;56.20
57000;BME280;42891;50.006;21.964;2023-05-01T03:31:00;50832.38;;;-146.02;56.79
57000;BME280;42891;50.006;21.964;2023-05-01T03:35:00;50856.41;;;-146.02;56.92
57000;BME280;42891;50.006;21.964;2023-05-01T03:39:00;50840.38;;;-146.02;57.37
57000;BME280;42891;50.006;21.964;2023-05-01T03:43:01;50866.44;;;-146.02;57.41
57000;BME280;42891;50.006;21.964;2023-05-01T03:47:01;50904.50;;;-146.02;57.39
57000;BME280;42891;50.006;21.964;2023-05-01T03:51:01;50858.41;;;-146.02;57.63
57000;BME280;42891;50.006;21.964;2023-05-01T03:55:02;50932.56;;;-146.02;57.35
57000;BME280;42891;50.006;21.964;2023-05-01T03:59:02;50860.44;;;-146.02;58.00
57000;BME280;42891;50.006;21.964;2023-05-01T04:03:03;50930.56;;;-146.02;58.35
57000;BME280;42891;50.006;21.964;2023-05-01T04:07:04;50876.44;;;-146.02;58.93
57000;BME280;42891;50.006;21.964;2023-05-01T04:11:04;50872.44;;;-146.02;58.92
57000;BME280;42891;50.006;21.964;2023-05-01T04:15:06;50836.38;;;-146.02;58.78
57000;BME280;42891;50.006;21.964;2023-05-01T04:19:07;50900.50;;;-146.02;58.99
57000;BME280;42891;50.006;21.964;2023-05-01T04:23:08;50912.53;;;-146.02;58.96
57000;BME280;42891;50.006;21.964;2023-05-01T04:27:08;50868.44;;;-146.02;58.82
57000;BME280;42891;50.006;21.964;2023-05-01T04:31:09;50856.41;;;-146.02;59.15
57000;BME280;42891;50.006;21.964;2023-05-01T04:35:09;50888.47;;;-146.02;59.15
57000;BME280;42891;50.006;21.964;2023-05-01T04:39:11;50840.38;;;-146.02;59.12
57000;BME280;42891;50.006;21.964;2023-05-01T04:43:11;50872.44;;;-146.02;58.79
57000;BME280;42891;50.006;21.964;2023-05-01T04:47:12;50900.50;;;-146.02;58.68
57000;BME280;42891;50.006;21.964;2023-05-01T04:51:12;50860.44;;;-146.02;59.55
57000;BME280;42891;50.006;21.964;2023-05-01T04:55:13;50840.38;;;-146.02;59.29
57000;BME280;42891;50.006;21.964;2023-05-01T04:59:13;50880.47;;;-146.02;59.26
57000;BME280;42891;50.006;21.964;2023-05-01T05:03:13;50892.47;;;-146.02;59.04
57000;BME280;42891;50.006;21.964;2023-05-01T05:07:18;50888.47;;;-146.02;58.08
57000;BME280;42891;50.006;21.964;2023-05-01T05:11:18;50866.44;;;-146.02;57.41
57000;BME280;42891;50.006;21.964;2023-05-01T05:15:18;50854.41;;;-146.02;57.33
57000;BME280;42891;50.006;21.964;2023-05-01T05:19:19;50908.50;;;-146.02;57.08
57000;BME280;42891;50.006;21.964;2023-05-01T05:23:19;50898.50;;;-146.02;57.60
57000;BME280;42891;50.006;21.964;2023-05-01T05:27:20;50898.50;;;-146.02;57.88
57000;BME280;42891;50.006;21.964;2023-05-01T05:31:20;50906.50;;;-146.02;58.29
57000;BME280;42891;50.006;21.964;2023-05-01T05:35:21;50880.47;;;-146.02;58.69
57000;BME280;42891;50.006;21.964;2023-05-01T05:39:21;50920.53;;;-146.02;57.86
57000;BME280;42891;50.006;21.964;2023-05-01T05:43:22;50868.44;;;-146.02;57.49
57000;BME280;42891;50.006;21.964;2023-05-01T05:47:23;50888.47;;;-146.02;57.58
57000;BME280;42891;50.006;21.964;2023-05-01T05:51:23;50894.50;;;-146.02;56.95
57000;BME280;42891;50.006;21.964;2023-05-01T05:55:23;50862.44;;;-146.02;55.77
57000;BME280;42891;50.006;21.964;2023-05-01T05:59:24;50878.47;;;-146.02;55.72
57000;BME280;42891;50.006;21.964;2023-05-01T06:03:24;50868.44;;;-146.02;55.85
57000;BME280;42891;50.006;21.964;2023-05-01T06:07:26;50828.38;;;-146.02;55.19
57000;BME280;42891;50.006;21.964;2023-05-01T06:11:27;50856.41;;;-146.02;54.23
57000;BME280;42891;50.006;21.964;2023-05-01T06:15:28;50892.47;;;-146.02;54.05
57000;BME280;42891;50.006;21.964;2023-05-01T06:19:28;50920.53;;;-146.02;54.74
57000;BME280;42891;50.006;21.964;2023-05-01T06:23:28;50860.44;;;-146.02;55.13
57000;BME280;42891;50.006;21.964;2023-05-01T06:27:29;50880.47;;;-146.02;54.97
57000;BME280;42891;50.006;21.964;2023-05-01T06:31:29;50896.50;;;-146.02;53.71
57000;BME280;42891;50.006;21.964;2023-05-01T06:35:30;50866.44;;;-146.02;52.70
57000;BME280;42891;50.006;21.964;2023-05-01T06:39:30;50856.41;;;-146.02;53.47
57000;BME280;42891;50.006;21.964;2023-05-01T06:43:31;50876.44;;;-146.02;52.45
57000;BME280;42891;50.006;21.964;2023-05-01T06:47:32;50888.47;;;-146.02;48.60
57000;BME280;42891;50.006;21.964;2023-05-01T06:51:32;50862.44;;;-146.02;49.14
57000;BME280;42891;50.006;21.964;2023-05-01T06:55:33;50888.47;;;-146.02;50.34
57000;BME280;42891;50.006;21.964;2023-05-01T06:59:33;50856.41;;;-146.02;47.47
57000;BME280;42891;50.006;21.964;2023-05-01T07:03:33;50870.44;;;-146.02;47.41
57000;BME280;42891;50.006;21.964;2023-05-01T07:07:34;50864.44;;;-146.02;48.47
57000;BME280;42891;50.006;21.964;2023-05-01T07:11:35;50898.50;;;-146.02;48.48
57000;BME280;42891;50.006;21.964;2023-05-01T07:15:36;50832.38;;;-146.02;48.91
57000;BME280;42891;50.006;21.964;2023-05-01T07:19:37;50850.41;;;-146.02;45.75
57000;BME280;42891;50.006;21.964;2023-05-01T07:23:38;50862.44;;;-146.02;47.70
57000;BME280;42891;50.006;21.964;2023-05-01T07:27:38;50866.44;;;-146.02;46.51
57000;BME280;42891;50.006;21.964;2023-05-01T07:31:39;50842.38;;;-146.02;46.82
57000;BME280;42891;50.006;21.964;2023-05-01T07:35:40;50870.44;;;-146.02;47.01
57000;BME280;42891;50.006;21.964;2023-05-01T07:39:42;50870.44;;;-146.02;47.04
57000;BME280;42891;50.006;21.964;2023-05-01T07:43:42;50836.38;;;-146.02;45.70
57000;BME280;42891;50.006;21.964;2023-05-01T07:47:42;50880.47;;;-146.02;43.24
57000;BME280;42891;50.006;21.964;2023-05-01T07:51:43;50868.44;;;-146.02;42.32
57000;BME280;42891;50.006;21.964;2023-05-01T07:55:44;50834.38;;;-146.02;43.28
57000;BME280;42891;50.006;21.964;2023-05-01T07:59:45;50854.41;;;-146.02;43.86
57000;BME280;42891;50.006;21.964;2023-05-01T08:03:45;50840.38;;;-146.02;43.12
57000;BME280;42891;50.006;21.964;2023-05-01T08:07:45;50878.47;;;-146.02;42.05
57000;BME280;42891;50.006;21.964;2023-05-01T08:11:46;50860.44;;;-146.02;40.83
57000;BME280;42891;50.006;21.964;2023-05-01T08:15:47;50844.41;;;-146.02;41.06
57000;BME280;42891;50.006;21.964;2023-05-01T08:19:47;50844.41;;;-146.02;41.84
57000;BME280;42891;50.006;21.964;2023-05-01T08:23:48;50806.31;;;-146.02;42.25
57000;BME280;42891;50.006;21.964;2023-05-01T08:27:50;50844.41;;;-146.02;43.89
57000;BME280;42891;50.006;21.964;2023-05-01T08:31:50;50836.38;;;-146.02;42.46
57000;BME280;42891;50.006;21.964;2023-05-01T08:35:51;50848.41;;;-146.02;42.26
57000;BME280;42891;50.006;21.964;2023-05-01T08:39:51;50840.38;;;-146.02;42.25
57000;BME280;42891;50.006;21.964;2023-05-01T08:43:52;50836.38;;;-146.02;40.65
57000;BME280;42891;50.006;21.964;2023-05-01T08:47:53;50812.34;;;-146.02;39.96
57000;BME280;42891;50.006;21.964;2023-05-01T08:51:54;50846.41;;;-146.02;39.62
57000;BME280;42891;50.006;21.964;2023-05-01T08:55:57;50822.34;;;-146.02;40.30
57000;BME280;42891;50.006;21.964;2023-05-01T08:59:59;50848.41;;;-146.02;38.50
57000;BME280;42891;50.006;21.964;2023-05-01T09:04:01;50822.34;;;-146.02;38.77
57000;BME280;42891;50.006;21.964;2023-05-01T09:08:03;50848.41;;;-146.02;40.10
57000;BME280;42891;50.006;21.964;2023-05-01T09:12:24;50826.38;;;-146.02;39.26
57000;BME280;42891;50.006;21.964;2023-05-01T09:16:25;50798.31;;;-146.02;37.55
57000;BME280;42891;50.006;21.964;2023-05-01T09:20:25;50798.31;;;-146.02;38.93
57000;BME280;42891;50.006;21.964;2023-05-01T09:24:26;50804.31;;;-146.02;39.55
57000;BME280;42891;50.006;21.964;2023-05-01T09:28:43;50814.34;;;-146.02;36.77
57000;BME280;42891;50.006;21.964;2023-05-01T09:32:44;50812.34;;;-146.02;39.68
57000;BME280;42891;50.006;21.964;2023-05-01T09:36:45;50812.34;;;-146.02;37.70
57000;BME280;42891;50.006;21.964;2023-05-01T09:40:46;50780.28;;;-146.02;37.63
57000;BME280;42891;50.006;21.964;2023-05-01T09:44:46;50812.34;;;-146.02;37.83
57000;BME280;42891;50.006;21.964;2023-05-01T09:48:52;50814.34;;;-146.02;38.43
57000;BME280;42891;50.006;21.964;2023-05-01T09:52:54;50820.34;;;-146.02;37.47
57000;BME280;42891;50.006;21.964;2023-05-01T09:56:55;50778.28;;;-146.02;38.67
57000;BME280;42891;50.006;21.964;2023-05-01T10:00:56;50816.34;;;-146.02;38.30
57000;BME280;42891;50.006;21.964;2023-05-01T10:04:57;50788.28;;;-146.02;38.91
57000;BME280;42891;50.006;21.964;2023-05-01T10:08:58;50826.38;;;-146.02;37.69
57000;BME280;42891;50.006;21.964;2023-05-01T10:13:17;50780.28;;;-146.02;35.10
57000;BME280;42891;50.006;21.964;2023-05-01T10:17:18;50768.25;;;-146.02;36.47
57000;BME280;42891;50.006;21.964;2023-05-01T10:21:19;50796.31;;;-146.02;35.30
57000;BME280;42891;50.006;21.964;2023-05-01T10:25:19;50768.25;;;-146.02;37.04
57000;BME280;42891;50.006;21.964;2023-05-01T10:29:22;50812.34;;;-146.02;35.89
57000;BME280;42891;50.006;21.964;2023-05-01T10:33:23;50778.28;;;-146.02;34.48
57000;BME280;42891;50.006;21.964;2023-05-01T10:37:31;50786.28;;;-146.02;33.95
57000;BME280;42891;50.006;21.964;2023-05-01T10:58:12;50800.31;;;-146.02;33.79
57000;BME280;42891;50.006;21.964;2023-05-01T11:02:22;50770.25;;;-146.02;37.01
57000;BME280;42891;50.006;21.964;2023-05-01T11:06:23;50750.22;;;-146.02;35.60
57000;BME280;42891;50.006;21.964;2023-05-01T11:10:24;50788.28;;;-146.02;35.56
57000;BME280;42891;50.006;21.964;2023-05-01T11:14:25;50752.22;;;-146.02;34.81
57000;BME280;42891;50.006;21.964;2023-05-01T11:18:44;50814.34;;;-146.02;33.24
57000;BME280;42891;50.006;21.964;2023-05-01T11:22:44;50794.31;;;-146.02;35.39
57000;BME280;42891;50.006;21.964;2023-05-01T11:26:47;50776.28;;;-146.02;33.51
57000;BME280;42891;50.006;21.964;2023-05-01T11:30:47;50734.19;;;-146.02;35.75
57000;BME280;42891;50.006;21.964;2023-05-01T11:34:49;50768.25;;;-146.02;35.27
57000;BME280;42891;50.006;21.964;2023-05-01T11:38:54;50772.25;;;-146.02;36.32
57000;BME280;42891;50.006;21.964;2023-05-01T11:47:00;50774.28;;;-146.02;34.91
57000;BME280;42891;50.006;21.964;2023-05-01T11:51:11;50736.19;;;-146.02;34.65
57000;BME280;42891;50.006;21.964;2023-05-01T11:55:11;50736.19;;;-146.02;34.76
57000;BME280;42891;50.006;21.964;2023-05-01T11:59:14;50722.19;;;-146.02;33.99
57000;BME280;42891;50.006;21.964;2023-05-01T12:03:18;50790.28;;;-146.02;33.37
57000;BME280;42891;50.006;21.964;2023-05-01T12:07:20;50754.22;;;-146.02;34.83
57000;BME280;42891;50.006;21.964;2023-05-01T12:11:21;50762.25;;;-146.02;35.07
57000;BME280;42891;50.006;21.964;2023-05-01T12:15:23;50742.22;;;-146.02;34.79
57000;BME280;42891;50.006;21.964;2023-05-01T12:19:23;50794.31;;;-146.02;35.50
57000;BME280;42891;50.006;21.964;2023-05-01T12:23:34;50736.19;;;-146.02;34.81
57000;BME280;42891;50.006;21.964;2023-05-01T12:27:42;50746.22;;;-146.02;35.01
57000;BME280;42891;50.006;21.964;2023-05-01T12:31:47;50734.19;;;-146.02;34.88
57000;BME280;42891;50.006;21.964;2023-05-01T12:35:48;50772.25;;;-146.02;34.79
57000;BME280;42891;50.006;21.964;2023-05-01T12:39:49;50726.19;;;-146.02;34.97
57000;BME280;42891;50.006;21.964;2023-05-01T12:43:50;50702.13;;;-146.02;34.94
57000;BME280;42891;50.006;21.964;2023-05-01T12:47:51;50738.19;;;-146.02;34.54
57000;BME280;42891;50.006;21.964;2023-05-01T12:51:56;50728.19;;;-146.02;34.82
57000;BME280;42891;50.006;21.964;2023-05-01T12:55:57;50732.19;;;-146.02;34.76
57000;BME280;42891;50.006;21.964;2023-05-01T12:59:59;50730.19;;;-146.02;33.78
57000;BME280;42891;50.006;21.964;2023-05-01T13:04:00;50682.09;;;-146.02;33.73
57000;BME280;42891;50.006;21.964;2023-05-01T13:08:02;50700.13;;;-146.02;33.53
57000;BME280;42891;50.006;21.964;2023-05-01T13:12:04;50732.19;;;-146.02;34.15
57000;BME280;42891;50.006;21.964;2023-05-01T13:16:13;50700.13;;;-146.02;33.66
57000;BME280;42891;50.006;21.964;2023-05-01T13:20:14;50718.16;;;-146.02;33.25
57000;BME280;42891;50.006;21.964;2023-05-01T13:24:34;50706.16;;;-146.02;33.44
57000;BME280;42891;50.006;21.964;2023-05-01T13:28:41;50688.13;;;-146.02;33.34
57000;BME280;42891;50.006;21.964;2023-05-01T13:32:45;50724.19;;;-146.02;33.42
57000;BME280;42891;50.006;21.964;2023-05-01T13:36:45;50740.22;;;-146.02;32.37
57000;BME280;42891;50.006;21.964;2023-05-01T13:40:45;50688.13;;;-146.02;33.01
57000;BME280;42891;50.006;21.964;2023-05-01T13:44:50;50708.16;;;-146.02;32.92
57000;BME280;42891;50.006;21.964;2023-05-01T13:48:51;50688.13;;;-146.02;32.30
57000;BME280;42891;50.006;21.964;2023-05-01T13:52:51;50690.13;;;-146.02;31.75
57000;BME280;42891;50.006;21.964;2023-05-01T13:56:52;50668.06;;;-146.02;32.05
57000;BME280;42891;50.006;21.964;2023-05-01T14:00:52;50688.13;;;-146.02;32.00
57000;BME280;42891;50.006;21.964;2023-05-01T14:04:54;50692.13;;;-146.02;31.78
57000;BME280;42891;50.006;21.964;2023-05-01T14:08:57;50684.09;;;-146.02;31.96
57000;BME280;42891;50.006;21.964;2023-05-01T14:12:59;50678.09;;;-146.02;31.45
57000;BME280;42891;50.006;21.964;2023-05-01T14:17:00;50698.13;;;-146.02;30.77
57000;BME280;42891;50.006;21.964;2023-05-01T14:21:01;50658.06;;;-146.02;31.26
57000;BME280;42891;50.006;21.964;2023-05-01T14:25:04;50724.19;;;-146.02;31.21
57000;BME280;42891;50.006;21.964;2023-05-01T14:29:05;50706.16;;;-146.02;31.48
57000;BME280;42891;50.006;21.964;2023-05-01T14:33:11;50686.09;;;-146.02;31.11
57000;BME280;42891;50.006;21.964;2023-05-01T14:37:12;50668.06;;;-146.02;31.37
57000;BME280;42891;50.006;21.964;2023-05-01T14:41:16;50652.03;;;-146.02;30.99
57000;BME280;42891;50.006;21.964;2023-05-01T14:45:18;50720.16;;;-146.02;31.44
57000;BME280;42891;50.006;21.964;2023-05-01T14:49:23;50650.03;;;-146.02;30.92
57000;BME280;42891;50.006;21.964;2023-05-01T14:53:24;50664.06;;;-146.02;31.23
57000;BME280;42891;50.006;21.964;2023-05-01T14:57:26;50676.09;;;-146.02;30.88
57000;BME280;42891;50.006;21.964;2023-05-01T15:01:26;50654.06;;;-146.02;30.68
57000;BME280;42891;50.006;21.964;2023-05-01T15:05:27;50648.03;;;-146.02;30.68
57000;BME280;42891;50.006;21.964;2023-05-01T15:09:28;50688.13;;;-146.02;30.22
57000;BME280;42891;50.006;21.964;2023-05-01T15:13:28;50650.03;;;-146.02;29.65
57000;BME280;42891;50.006;21.964;2023-05-01T15:17:30;50579.91;;;-146.02;28.41
57000;BME280;42891;50.006;21.964;2023-05-01T15:21:30;50603.97;;;-146.02;28.24
57000;BME280;42891;50.006;21.964;2023-05-01T15:25:32;50609.97;;;-146.02;27.71
57000;BME280;42891;50.006;21.964;2023-05-01T15:29:33;50541.84;;;-146.02;27.15
57000;BME280;42891;50.006;21.964;2023-05-01T15:33:33;50555.88;;;-146.02;27.17
57000;BME280;42891;50.006;21.964;2023-05-01T15:37:34;50573.91;;;-146.02;26.31
57000;BME280;42891;50.006;21.964;2023-05-01T15:41:34;50547.88;;;-146.02;26.36
57000;BME280;42891;50.006;21.964;2023-05-01T15:45:35;50547.88;;;-146.02;26.46
57000;BME280;42891;50.006;21.964;2023-05-01T15:49:41;50517.81;;;-146.02;26.33
57000;BME280;42891;50.006;21.964;2023-05-01T15:53:41;50523.81;;;-146.02;26.78
57000;BME280;42891;50.006;21.964;2023-05-01T15:57:44;50529.84;;;-146.02;26.74
57000;BME280;42891;50.006;21.964;2023-05-01T16:01:45;50569.91;;;-146.02;27.46
57000;BME280;42891;50.006;21.964;2023-05-01T16:05:46;50589.94;;;-146.02;28.07
57000;BME280;42891;50.006;21.964;2023-05-01T16:09:46;50595.94;;;-146.02;28.44
57000;BME280;42891;50.006;21.964;2023-05-01T16:13:47;50585.94;;;-146.02;28.89
57000;BME280;42891;50.006;21.964;2023-05-01T16:17:47;50599.97;;;-146.02;29.45
57000;BME280;42891;50.006;21.964;2023-05-01T16:21:50;50620.00;;;-146.02;29.82
57000;BME280;42891;50.006;21.964;2023-05-01T16:25:50;50672.09;;;-146.02;29.78
57000;BME280;42891;50.006;21.964;2023-05-01T16:29:51;50630.00;;;-146.02;29.90
57000;BME280;42891;50.006;21.964;2023-05-01T16:33:51;50656.06;;;-146.02;30.69
57000;BME280;42891;50.006;21.964;2023-05-01T16:37:53;50664.06;;;-146.02;30.78
57000;BME280;42891;50.006;21.964;2023-05-01T16:41:54;50648.03;;;-146.02;30.93
57000;BME280;42891;50.006;21.964;2023-05-01T16:45:56;50692.13;;;-146.02;31.05
57000;BME280;42891;50.006;21.964;2023-05-01T16:49:58;50686.09;;;-146.02;31.01
57000;BME280;42891;50.006;21.964;2023-05-01T16:53:59;50684.09;;;-146.02;30.92
57000;BME280;42891;50.006;21.964;2023-05-01T16:57:59;50728.19;;;-146.02;30.63
57000;BME280;42891;50.006;21.964;2023-05-01T17:01:59;50688.13;;;-146.02;30.98
57000;BME280;42891;50.006;21.964;2023-05-01T17:06:00;50708.16;;;-146.02;31.22
57000;BME280;42891;50.006;21.964;2023-05-01T17:10:00;50700.13;;;-146.02;31.43
57000;BME280;42891;50.006;21.964;2023-05-01T17:14:01;50694.13;;;-146.02;31.59
57000;BME280;42891;50.006;21.964;2023-05-01T17:18:01;50680.09;;;-146.02;31.48
57000;BME280;42891;50.006;21.964;2023-05-01T17:22:02;50702.13;;;-146.02;31.54
57000;BME280;42891;50.006;21.964;2023-05-01T17:26:02;50700.13;;;-146.02;31.62
57000;BME280;42891;50.006;21.964;2023-05-01T17:30:05;50676.09;;;-146.02;32.04
57000;BME280;42891;50.006;21.964;2023-05-01T17:34:05;50704.13;;;-146.02;32.03
57000;BME280;42891;50.006;21.964;2023-05-01T17:38:06;50714.16;;;-146.02;31.99
57000;BME280;42891;50.006;21.964;2023-05-01T17:42:06;50706.16;;;-146.02;32.39
57000;BME280;42891;50.006;21.964;2023-05-01T17:46:07;50706.16;;;-146.02;32.42
57000;BME280;42891;50.006;21.964;2023-05-01T17:50:09;50684.09;;;-146.02;32.62
57000;BME280;42891;50.006;21.964;2023-05-01T17:54:09;50694.13;;;-146.02;32.42
57000;BME280;42891;50.006;21.964;2023-05-01T17:58:10;50706.16;;;-146.02;32.91
57000;BME280;42891;50.006;21.964;2023-05-01T18:02:10;50690.13;;;-146.02;32.77
57000;BME280;42891;50.006;21.964;2023-05-01T18:06:10;50722.19;;;-146.02;33.37
57000;BME280;42891;50.006;21.964;2023-05-01T18:10:11;50750.22;;;-146.02;33.40
57000;BME280;42891;50.006;21.964;2023-05-01T18:14:11;50736.19;;;-146.02;33.65
57000;BME280;42891;50.006;21.964;2023-05-01T18:18:11;50754.22;;;-146.02;33.95
57000;BME280;42891;50.006;21.964;2023-05-01T18:22:12;50740.22;;;-146.02;33.91
57000;BME280;42891;50.006;21.964;2023-05-01T18:26:12;50744.22;;;-146.02;33.76
57000;BME280;42891;50.006;21.964;2023-05-01T18:30:13;50720.16;;;-146.02;34.16
57000;BME280;42891;50.006;21.964;2023-05-01T18:34:13;50746.22;;;-146.02;34.07
57000;BME280;42891;50.006;21.964;2023-05-01T18:38:14;50702.13;;;-146.02;33.95
57000;BME280;42891;50.006;21.964;2023-05-01T18:42:14;50768.25;;;-146.02;34.85
57000;BME280;42891;50.006;21.964;2023-05-01T18:46:14;50722.19;;;-146.02;34.51
57000;BME280;42891;50.006;21.964;2023-05-01T18:50:15;50736.19;;;-146.02;35.56
57000;BME280;42891;50.006;21.964;2023-05-01T18:54:20;50704.13;;;-146.02;34.95
57000;BME280;42891;50.006;21.964;2023-05-01T18:58:22;50732.19;;;-146.02;35.26
57000;BME280;42891;50.006;21.964;2023-05-01T19:02:22;50736.19;;;-146.02;35.34
57000;BME280;42891;50.006;21.964;2023-05-01T19:06:22;50722.19;;;-146.02;36.44
57000;BME280;42891;50.006;21.964;2023-05-01T19:10:22;50724.19;;;-146.02;36.04
57000;BME280;42891;50.006;21.964;2023-05-01T19:14:23;50758.25;;;-146.02;36.20
57000;BME280;42891;50.006;21.964;2023-05-01T19:18:23;50732.19;;;-146.02;37.12
57000;BME280;42891;50.006;21.964;2023-05-01T19:22:24;50726.19;;;-146.02;36.80
57000;BME280;42891;50.006;21.964;2023-05-01T19:26:24;50730.19;;;-146.02;36.58
57000;BME280;42891;50.006;21.964;2023-05-01T19:30:25;50712.16;;;-146.02;37.14
57000;BME280;42891;50.006;21.964;2023-05-01T19:34:26;50724.19;;;-146.02;37.88
57000;BME280;42891;50.006;21.964;2023-05-01T19:38:26;50694.13;;;-146.02;37.89
57000;BME280;42891;50.006;21.964;2023-05-01T19:42:29;50748.22;;;-146.02;38.18
57000;BME280;42891;50.006;21.964;2023-05-01T19:46:29;50720.16;;;-146.02;38.77
57000;BME280;42891;50.006;21.964;2023-05-01T19:50:30;50754.22;;;-146.02;38.29
57000;BME280;42891;50.006;21.964;2023-05-01T19:54:30;50744.22;;;-146.02;38.01
57000;BME280;42891;50.006;21.964;2023-05-01T19:58:31;50734.19;;;-146.02;37.86
57000;BME280;42891;50.006;21.964;2023-05-01T20:02:31;50718.16;;;-146.02;38.35
57000;BME280;42891;50.006;21.964;2023-05-01T20:06:32;50720.16;;;-146.02;38.45
57000;BME280;42891;50.006;21.964;2023-05-01T20:10:35;50762.25;;;-146.02;38.06
57000;BME280;42891;50.006;21.964;2023-05-01T20:14:35;50734.19;;;-146.02;38.94
57000;BME280;42891;50.006;21.964;2023-05-01T20:18:36;50782.28;;;-146.02;38.79
57000;BME280;42891;50.006;21.964;2023-05-01T20:22:36;50748.22;;;-146.02;39.28
57000;BME280;42891;50.006;21.964;2023-05-01T20:26:36;50746.22;;;-146.02;39.45
57000;BME280;42891;50.006;21.964;2023-05-01T20:30:38;50770.25;;;-146.02;39.80
57000;BME280;42891;50.006;21.964;2023-05-01T20:34:39;50760.25;;;-146.02;39.45
57000;BME280;42891;50.006;21.964;2023-05-01T20:38:42;50766.25;;;-146.02;39.12
57000;BME280;42891;50.006;21.964;2023-05-01T20:42:44;50756.22;;;-146.02;38.91
57000;BME280;42891;50.006;21.964;2023-05-01T20:46:44;50766.25;;;-146.02;39.17
57000;BME280;42891;50.006;21.964;2023-05-01T20:50:45;50768.25;;;-146.02;38.90
57000;BME280;42891;50.006;21.964;2023-05-01T20:54:47;50764.25;;;-146.02;39.56
57000;BME280;42891;50.006;21.964;2023-05-01T20:58:47;50752.22;;;-146.02;39.09
57000;BME280;42891;50.006;21.964;2023-05-01T21:02:47;50748.22;;;-146.02;39.38
57000;BME280;42891;50.006;21.964;2023-05-01T21:06:48;50770.25;;;-146.02;39.59
57000;BME280;42891;50.006;21.964;2023-05-01T21:10:49;50724.19;;;-146.02;40.24